sensor_id;sensor_type;location;lat;lon;timestamp;temperature;humidity
7384;DHT22;3733;47.994;8.820;2022-09-29T00:00:36;8.30;99.90
7384;DHT22;3733;47.994;8.820;2022-09-29T00:03:03;8.30;99.90
7384;DHT22;3733;47.994;8.820;2022-09-29T00:05:28;8.30;99.90
7384;DHT22;3733;47.994;8.820;2022-09-29T00:07:55;8.20;99.90
7384;DHT22;3733;47.994;8.820;2022-09-29T00:10:20;8.20;99.90
7384;DHT22;3733;47.994;8.820;2022-09-29T00:12:46;8.20;99.90
7384;DHT22;3733;47.994;8.820;2022-09-29T00:15:12;8.20;99.90
7384;DHT22;3733;47.994;8.820;2022-09-29T00:17:38;8.20;99.90
7384;DHT22;3733;47.994;8.820;2022-09-29T00:20:04;8.20;99.90
7384;DHT22;3733;47.994;8.820;2022-09-29T00:22:30;8.20;99.90
7384;DHT22;3733;47.994;8.820;2022-09-29T00:24:56;8.20;99.90
7384;DHT22;3733;47.994;8.820;2022-09-29T00:27:21;8.20;99.90
7384;DHT22;3733;47.994;8.820;2022-09-29T00:29:47;8.20;99.90
7384;DHT22;3733;47.994;8.820;2022-09-29T00:32:13;8.20;99.90
7384;DHT22;3733;47.994;8.820;2022-09-29T00:34:38;8.20;99.90
7384;DHT22;3733;47.994;8.820;2022-09-29T00:37:04;8.20;99.90
7384;DHT22;3733;47.994;8.820;2022-09-29T00:39:31;8.20;99.90
7384;DHT22;3733;47.994;8.820;2022-09-29T00:41:57;8.20;99.90
7384;DHT22;3733;47.994;8.820;2022-09-29T00:47:08;8.20;99.90
7384;DHT22;3733;47.994;8.820;2022-09-29T00:49:57;8.20;99.90
7384;DHT22;3733;47.994;8.820;2022-09-29T00:55:18;8.20;99.90
7384;DHT22;3733;47.994;8.820;2022-09-29T00:58:07;8.20;99.90
7384;DHT22;3733;47.994;8.820;2022-09-29T01:00:35;8.20;99.90
7384;DHT22;3733;47.994;8.820;2022-09-29T01:03:08;8.20;99.90
7384;DHT22;3733;47.994;8.820;2022-09-29T01:05:43;8.20;99.90
7384;DHT22;3733;47.994;8.820;2022-09-29T01:08:25;8.20;99.90
7384;DHT22;3733;47.994;8.820;2022-09-29T01:10:53;8.20;99.90
7384;DHT22;3733;47.994;8.820;2022-09-29T01:13:21;8.20;99.90
7384;DHT22;3733;47.994;8.820;2022-09-29T01:15:46;8.20;99.90
7384;DHT22;3733;47.994;8.820;2022-09-29T01:18:12;8.20;99.90
7384;DHT22;3733;47.994;8.820;2022-09-29T01:20:58;8.20;99.90
7384;DHT22;3733;47.994;8.820;2022-09-29T01:31:26;8.20;99.90
7384;DHT22;3733;47.994;8.820;2022-09-29T01:33:59;8.10;99.90
7384;DHT22;3733;47.994;8.820;2022-09-29T01:47:20;8.20;99.90
7384;DHT22;3733;47.994;8.820;2022-09-29T01:49:53;8.20;99.90
7384;DHT22;3733;47.994;8.820;2022-09-29T01:52:23;8.20;99.90
7384;DHT22;3733;47.994;8.820;2022-09-29T01:55:02;8.20;99.90
7384;DHT22;3733;47.994;8.820;2022-09-29T02:00:20;8.20;99.90
7384;DHT22;3733;47.994;8.820;2022-09-29T02:03:07;8.20;99.90
7384;DHT22;3733;47.994;8.820;2022-09-29T02:08:35;8.20;99.90
7384;DHT22;3733;47.994;8.820;2022-09-29T02:11:07;8.20;99.90
7384;DHT22;3733;47.994;8.820;2022-09-29T02:13:52;8.20;99.90
7384;DHT22;3733;47.994;8.820;2022-09-29T02:16:24;8.20;99.90
7384;DHT22;3733;47.994;8.820;2022-09-29T02:21:37;8.20;99.90
7384;DHT22;3733;47.994;8.820;2022-09-29T02:24:03;8.20;99.90
7384;DHT22;3733;47.994;8.820;2022-09-29T02:26:32;8.20;99.90
7384;DHT22;3733;47.994;8.820;2022-09-29T02:29:02;8.20;99.90
7384;DHT22;3733;47.994;8.820;2022-09-29T02:31:29;8.20;99.90
7384;DHT22;3733;47.994;8.820;2022-09-29T02:33:56;8.20;99.90
7384;DHT22;3733;47.994;8.820;2022-09-29T02:58:12;8.10;99.90
7384;DHT22;3733;47.994;8.820;2022-09-29T03:00:39;8.10;99.90
7384;DHT22;3733;47.994;8.820;2022-09-29T03:03:05;8.10;99.90
7384;DHT22;3733;47.994;8.820;2022-09-29T03:05:30;8.10;99.90
7384;DHT22;3733;47.994;8.820;2022-09-29T03:07:56;8.10;99.90
7384;DHT22;3733;47.994;8.820;2022-09-29T03:10:21;8.10;99.90
7384;DHT22;3733;47.994;8.820;2022-09-29T03:12:47;8.10;99.90
7384;DHT22;3733;47.994;8.820;2022-09-29T03:15:13;8.10;99.90
7384;DHT22;3733;47.994;8.820;2022-09-29T03:17:39;8.10;99.90
7384;DHT22;3733;47.994;8.820;2022-09-29T03:20:05;8.10;99.90
7384;DHT22;3733;47.994;8.820;2022-09-29T03:22:31;8.00;99.90
7384;DHT22;3733;47.994;8.820;2022-09-29T03:24:57;8.00;99.90
7384;DHT22;3733;47.994;8.820;2022-09-29T03:27:22;8.00;99.90
7384;DHT22;3733;47.994;8.820;2022-09-29T03:29:48;7.90;99.90
7384;DHT22;3733;47.994;8.820;2022-09-29T03:32:15;8.00;99.90
7384;DHT22;3733;47.994;8.820;2022-09-29T03:34:41;8.00;99.90
7384;DHT22;3733;47.994;8.820;2022-09-29T03:37:07;8.00;99.90
7384;DHT22;3733;47.994;8.820;2022-09-29T03:39:32;7.90;99.90
7384;DHT22;3733;47.994;8.820;2022-09-29T03:41:58;7.90;99.90
7384;DHT22;3733;47.994;8.820;2022-09-29T03:44:24;7.90;99.90
7384;DHT22;3733;47.994;8.820;2022-09-29T03:46:50;7.90;99.90
7384;DHT22;3733;47.994;8.820;2022-09-29T03:49:15;7.90;99.90
7384;DHT22;3733;47.994;8.820;2022-09-29T03:51:42;7.90;99.90
7384;DHT22;3733;47.994;8.820;2022-09-29T03:54:08;7.90;99.90
7384;DHT22;3733;47.994;8.820;2022-09-29T03:56:36;7.90;99.90
7384;DHT22;3733;47.994;8.820;2022-09-29T03:59:02;7.90;99.90
7384;DHT22;3733;47.994;8.820;2022-09-29T04:01:30;8.00;99.90
7384;DHT22;3733;47.994;8.820;2022-09-29T04:03:56;8.00;99.90
7384;DHT22;3733;47.994;8.820;2022-09-29T04:06:22;7.90;99.90
7384;DHT22;3733;47.994;8.820;2022-09-29T04:08:48;7.90;99.90
7384;DHT22;3733;47.994;8.820;2022-09-29T04:11:14;7.90;99.90
7384;DHT22;3733;47.994;8.820;2022-09-29T04:13:39;7.90;99.90
7384;DHT22;3733;47.994;8.820;2022-09-29T04:16:05;7.90;99.90
7384;DHT22;3733;47.994;8.820;2022-09-29T04:18:31;8.00;99.90
7384;DHT22;3733;47.994;8.820;2022-09-29T04:21:07;7.90;99.90
7384;DHT22;3733;47.994;8.820;2022-09-29T04:23:33;7.90;99.90
7384;DHT22;3733;47.994;8.820;2022-09-29T04:25:59;8.00;99.90
7384;DHT22;3733;47.994;8.820;2022-09-29T04:28:27;7.90;99.90
7384;DHT22;3733;47.994;8.820;2022-09-29T04:30:52;8.00;99.90
7384;DHT22;3733;47.994;8.820;2022-09-29T04:33:18;8.00;99.90
7384;DHT22;3733;47.994;8.820;2022-09-29T04:35:43;8.00;99.90
7384;DHT22;3733;47.994;8.820;2022-09-29T04:38:09;8.00;99.90
7384;DHT22;3733;47.994;8.820;2022-09-29T04:40:35;8.00;99.90
7384;DHT22;3733;47.994;8.820;2022-09-29T04:43:01;8.00;99.90
7384;DHT22;3733;47.994;8.820;2022-09-29T04:45:28;8.00;99.90
7384;DHT22;3733;47.994;8.820;2022-09-29T04:47:54;8.00;99.90
7384;DHT22;3733;47.994;8.820;2022-09-29T04:50:19;8.00;99.90
7384;DHT22;3733;47.994;8.820;2022-09-29T04:52:45;8.00;99.90
7384;DHT22;3733;47.994;8.820;2022-09-29T04:55:11;7.90;99.90
7384;DHT22;3733;47.994;8.820;2022-09-29T04:57:37;8.00;99.90
7384;DHT22;3733;47.994;8.820;2022-09-29T05:00:04;7.90;99.90
7384;DHT22;3733;47.994;8.820;2022-09-29T05:02:30;7.90;99.90
7384;DHT22;3733;47.994;8.820;2022-09-29T05:04:57;7.90;99.90
7384;DHT22;3733;47.994;8.820;2022-09-29T05:07:22;7.90;99.90
7384;DHT22;3733;47.994;8.820;2022-09-29T05:09:48;7.90;99.90
7384;DHT22;3733;47.994;8.820;2022-09-29T05:12:14;7.90;99.90
7384;DHT22;3733;47.994;8.820;2022-09-29T05:14:39;7.90;99.90
7384;DHT22;3733;47.994;8.820;2022-09-29T05:17:05;7.90;99.90
7384;DHT22;3733;47.994;8.820;2022-09-29T05:19:30;7.90;99.90
7384;DHT22;3733;47.994;8.820;2022-09-29T05:21:57;7.90;99.90
7384;DHT22;3733;47.994;8.820;2022-09-29T05:24:23;7.90;99.90
7384;DHT22;3733;47.994;8.820;2022-09-29T05:26:49;7.90;99.90
7384;DHT22;3733;47.994;8.820;2022-09-29T05:29:14;7.90;99.90
7384;DHT22;3733;47.994;8.820;2022-09-29T05:31:40;8.00;99.90
7384;DHT22;3733;47.994;8.820;2022-09-29T05:34:05;7.90;99.90
7384;DHT22;3733;47.994;8.820;2022-09-29T05:36:31;7.90;99.90
7384;DHT22;3733;47.994;8.820;2022-09-29T05:38:57;8.00;99.90
7384;DHT22;3733;47.994;8.820;2022-09-29T05:41:23;8.00;99.90
7384;DHT22;3733;47.994;8.820;2022-09-29T05:43:50;8.00;99.90
7384;DHT22;3733;47.994;8.820;2022-09-29T05:46:18;8.00;99.90
7384;DHT22;3733;47.994;8.820;2022-09-29T05:48:48;8.00;99.90
7384;DHT22;3733;47.994;8.820;2022-09-29T05:51:16;8.00;99.90
7384;DHT22;3733;47.994;8.820;2022-09-29T05:53:43;8.00;99.90
7384;DHT22;3733;47.994;8.820;2022-09-29T05:56:17;8.00;99.90
7384;DHT22;3733;47.994;8.820;2022-09-29T05:58:45;8.10;99.90
7384;DHT22;3733;47.994;8.820;2022-09-29T06:01:13;8.10;99.90
7384;DHT22;3733;47.994;8.820;2022-09-29T06:03:40;8.00;99.90
7384;DHT22;3733;47.994;8.820;2022-09-29T06:06:08;8.00;99.90
7384;DHT22;3733;47.994;8.820;2022-09-29T06:08:34;8.10;99.90
7384;DHT22;3733;47.994;8.820;2022-09-29T06:11:10;8.10;99.90
7384;DHT22;3733;47.994;8.820;2022-09-29T06:13:40;8.10;99.90
7384;DHT22;3733;47.994;8.820;2022-09-29T06:16:07;8.10;99.90
7384;DHT22;3733;47.994;8.820;2022-09-29T06:18:33;8.10;99.90
7384;DHT22;3733;47.994;8.820;2022-09-29T06:21:07;8.10;99.90
7384;DHT22;3733;47.994;8.820;2022-09-29T06:23:33;8.10;99.90
7384;DHT22;3733;47.994;8.820;2022-09-29T06:26:01;8.10;99.90
7384;DHT22;3733;47.994;8.820;2022-09-29T06:28:30;8.20;99.90
7384;DHT22;3733;47.994;8.820;2022-09-29T06:31:01;8.20;99.90
7384;DHT22;3733;47.994;8.820;2022-09-29T06:33:28;8.20;99.90
7384;DHT22;3733;47.994;8.820;2022-09-29T06:35:55;8.20;99.90
7384;DHT22;3733;47.994;8.820;2022-09-29T06:38:39;8.20;99.90
7384;DHT22;3733;47.994;8.820;2022-09-29T06:41:07;8.30;99.90
7384;DHT22;3733;47.994;8.820;2022-09-29T06:43:33;8.30;99.90
7384;DHT22;3733;47.994;8.820;2022-09-29T06:45:58;8.30;99.90
7384;DHT22;3733;47.994;8.820;2022-09-29T06:48:24;8.30;99.90
7384;DHT22;3733;47.994;8.820;2022-09-29T06:50:50;8.30;99.90
7384;DHT22;3733;47.994;8.820;2022-09-29T06:53:16;8.40;99.90
7384;DHT22;3733;47.994;8.820;2022-09-29T06:55:41;8.40;99.90
7384;DHT22;3733;47.994;8.820;2022-09-29T06:58:07;8.40;99.90
7384;DHT22;3733;47.994;8.820;2022-09-29T07:00:34;8.40;99.90
7384;DHT22;3733;47.994;8.820;2022-09-29T07:03:00;8.40;99.90
7384;DHT22;3733;47.994;8.820;2022-09-29T07:05:25;8.40;99.90
7384;DHT22;3733;47.994;8.820;2022-09-29T07:07:51;8.40;99.90
7384;DHT22;3733;47.994;8.820;2022-09-29T07:10:17;8.40;99.90
7384;DHT22;3733;47.994;8.820;2022-09-29T07:12:43;8.40;99.90
7384;DHT22;3733;47.994;8.820;2022-09-29T07:15:12;8.50;99.90
7384;DHT22;3733;47.994;8.820;2022-09-29T07:17:37;8.50;99.90
7384;DHT22;3733;47.994;8.820;2022-09-29T07:20:03;8.50;99.90
7384;DHT22;3733;47.994;8.820;2022-09-29T07:22:29;8.60;99.90
7384;DHT22;3733;47.994;8.820;2022-09-29T07:24:55;8.60;99.90
7384;DHT22;3733;47.994;8.820;2022-09-29T07:27:21;8.60;99.90
7384;DHT22;3733;47.994;8.820;2022-09-29T07:29:52;8.70;99.90
7384;DHT22;3733;47.994;8.820;2022-09-29T07:32:18;8.70;99.90
7384;DHT22;3733;47.994;8.820;2022-09-29T07:34:43;8.70;99.90
7384;DHT22;3733;47.994;8.820;2022-09-29T07:37:10;8.70;99.90
7384;DHT22;3733;47.994;8.820;2022-09-29T07:39:36;8.70;99.90
7384;DHT22;3733;47.994;8.820;2022-09-29T07:42:02;8.70;99.90
7384;DHT22;3733;47.994;8.820;2022-09-29T07:44:28;8.70;99.90
7384;DHT22;3733;47.994;8.820;2022-09-29T07:46:56;8.70;99.90
7384;DHT22;3733;47.994;8.820;2022-09-29T07:49:22;8.80;99.90
7384;DHT22;3733;47.994;8.820;2022-09-29T07:51:48;8.90;99.90
7384;DHT22;3733;47.994;8.820;2022-09-29T07:54:13;9.00;99.90
7384;DHT22;3733;47.994;8.820;2022-09-29T07:56:39;9.00;99.90
7384;DHT22;3733;47.994;8.820;2022-09-29T07:59:05;9.00;99.90
7384;DHT22;3733;47.994;8.820;2022-09-29T08:01:31;9.00;99.90
7384;DHT22;3733;47.994;8.820;2022-09-29T08:03:58;9.00;99.90
7384;DHT22;3733;47.994;8.820;2022-09-29T08:06:25;9.00;99.90
7384;DHT22;3733;47.994;8.820;2022-09-29T08:08:51;9.00;99.90
7384;DHT22;3733;47.994;8.820;2022-09-29T08:11:19;9.00;99.90
7384;DHT22;3733;47.994;8.820;2022-09-29T08:13:46;9.10;99.90
7384;DHT22;3733;47.994;8.820;2022-09-29T08:16:13;9.00;99.90
7384;DHT22;3733;47.994;8.820;2022-09-29T08:18:39;9.00;99.90
7384;DHT22;3733;47.994;8.820;2022-09-29T08:21:05;9.10;99.90
7384;DHT22;3733;47.994;8.820;2022-09-29T08:23:39;9.10;99.90
7384;DHT22;3733;47.994;8.820;2022-09-29T08:26:16;9.10;99.90
7384;DHT22;3733;47.994;8.820;2022-09-29T08:28:43;9.20;99.90
7384;DHT22;3733;47.994;8.820;2022-09-29T08:31:15;9.20;99.90
7384;DHT22;3733;47.994;8.820;2022-09-29T08:33:45;9.30;99.90
7384;DHT22;3733;47.994;8.820;2022-09-29T08:36:11;9.30;99.90
7384;DHT22;3733;47.994;8.820;2022-09-29T08:38:41;9.30;99.90
7384;DHT22;3733;47.994;8.820;2022-09-29T08:43:58;9.40;99.90
7384;DHT22;3733;47.994;8.820;2022-09-29T08:46:32;9.40;99.90
7384;DHT22;3733;47.994;8.820;2022-09-29T08:49:03;9.40;99.90
7384;DHT22;3733;47.994;8.820;2022-09-29T08:51:38;9.40;99.90
7384;DHT22;3733;47.994;8.820;2022-09-29T08:54:14;9.50;99.90
7384;DHT22;3733;47.994;8.820;2022-09-29T08:56:42;9.50;99.90
7384;DHT22;3733;47.994;8.820;2022-09-29T08:59:09;9.50;99.90
7384;DHT22;3733;47.994;8.820;2022-09-29T09:21:09;9.60;99.90
7384;DHT22;3733;47.994;8.820;2022-09-29T09:23:55;9.70;99.90
7384;DHT22;3733;47.994;8.820;2022-09-29T09:26:37;9.70;99.90
7384;DHT22;3733;47.994;8.820;2022-09-29T09:31:55;9.70;99.90
7384;DHT22;3733;47.994;8.820;2022-09-29T09:34:33;9.80;99.90
7384;DHT22;3733;47.994;8.820;2022-09-29T09:37:07;9.80;99.90
7384;DHT22;3733;47.994;8.820;2022-09-29T09:39:46;9.80;99.90
7384;DHT22;3733;47.994;8.820;2022-09-29T09:42:20;9.80;99.90
7384;DHT22;3733;47.994;8.820;2022-09-29T09:45:35;9.80;99.90
7384;DHT22;3733;47.994;8.820;2022-09-29T09:47:46;9.80;99.90
7384;DHT22;3733;47.994;8.820;2022-09-29T09:50:16;9.80;99.90
7384;DHT22;3733;47.994;8.820;2022-09-29T09:52:51;9.80;99.90
7384;DHT22;3733;47.994;8.820;2022-09-29T09:55:22;9.80;99.90
7384;DHT22;3733;47.994;8.820;2022-09-29T10:03:08;9.90;99.90
7384;DHT22;3733;47.994;8.820;2022-09-29T10:05:35;10.00;99.90
7384;DHT22;3733;47.994;8.820;2022-09-29T10:08:05;10.00;99.90
7384;DHT22;3733;47.994;8.820;2022-09-29T10:10:31;10.00;99.90
7384;DHT22;3733;47.994;8.820;2022-09-29T10:13:05;10.10;99.90
7384;DHT22;3733;47.994;8.820;2022-09-29T10:20:50;10.30;99.90
7384;DHT22;3733;47.994;8.820;2022-09-29T10:23:22;10.30;99.90
7384;DHT22;3733;47.994;8.820;2022-09-29T10:33:58;10.70;99.90
7384;DHT22;3733;47.994;8.820;2022-09-29T10:36:31;10.70;99.90
7384;DHT22;3733;47.994;8.820;2022-09-29T10:38:58;10.80;99.90
7384;DHT22;3733;47.994;8.820;2022-09-29T10:41:24;10.90;99.90
7384;DHT22;3733;47.994;8.820;2022-09-29T10:43:50;11.00;99.90
7384;DHT22;3733;47.994;8.820;2022-09-29T10:49:08;11.00;99.90
7384;DHT22;3733;47.994;8.820;2022-09-29T10:51:35;11.00;99.90
7384;DHT22;3733;47.994;8.820;2022-09-29T10:54:08;11.00;99.90
7384;DHT22;3733;47.994;8.820;2022-09-29T10:56:36;11.00;99.90
7384;DHT22;3733;47.994;8.820;2022-09-29T10:59:02;11.00;99.90
7384;DHT22;3733;47.994;8.820;2022-09-29T11:01:30;11.00;99.90
7384;DHT22;3733;47.994;8.820;2022-09-29T11:04:02;11.00;99.90
7384;DHT22;3733;47.994;8.820;2022-09-29T11:06:35;10.90;99.90
7384;DHT22;3733;47.994;8.820;2022-09-29T11:11:38;10.80;99.90
7384;DHT22;3733;47.994;8.820;2022-09-29T11:14:05;10.70;99.90
7384;DHT22;3733;47.994;8.820;2022-09-29T11:16:33;10.70;99.90
7384;DHT22;3733;47.994;8.820;2022-09-29T11:19:13;10.70;99.90
7384;DHT22;3733;47.994;8.820;2022-09-29T11:22:04;10.70;99.90
7384;DHT22;3733;47.994;8.820;2022-09-29T11:27:42;10.70;99.90
7384;DHT22;3733;47.994;8.820;2022-09-29T11:30:13;10.80;99.90
7384;DHT22;3733;47.994;8.820;2022-09-29T11:43:54;11.40;99.90
7384;DHT22;3733;47.994;8.820;2022-09-29T11:52:11;11.80;99.90
7384;DHT22;3733;47.994;8.820;2022-09-29T12:00:26;11.80;99.90
7384;DHT22;3733;47.994;8.820;2022-09-29T12:09:42;11.90;99.90
7384;DHT22;3733;47.994;8.820;2022-09-29T12:17:17;11.70;99.90
7384;DHT22;3733;47.994;8.820;2022-09-29T12:19:48;11.70;99.90
7384;DHT22;3733;47.994;8.820;2022-09-29T12:22:18;11.70;99.90
7384;DHT22;3733;47.994;8.820;2022-09-29T12:24:50;11.60;99.90
7384;DHT22;3733;47.994;8.820;2022-09-29T12:27:36;11.50;99.90
7384;DHT22;3733;47.994;8.820;2022-09-29T12:36:12;11.20;99.90
7384;DHT22;3733;47.994;8.820;2022-09-29T12:41:40;11.20;99.90
7384;DHT22;3733;47.994;8.820;2022-09-29T12:44:17;11.20;99.90
7384;DHT22;3733;47.994;8.820;2022-09-29T12:46:52;11.20;99.90
7384;DHT22;3733;47.994;8.820;2022-09-29T12:49:28;11.30;99.90
7384;DHT22;3733;47.994;8.820;2022-09-29T12:51:58;11.30;99.90
7384;DHT22;3733;47.994;8.820;2022-09-29T12:54:26;11.30;99.90
7384;DHT22;3733;47.994;8.820;2022-09-29T12:56:55;11.30;99.90
7384;DHT22;3733;47.994;8.820;2022-09-29T13:05:10;11.50;99.90
7384;DHT22;3733;47.994;8.820;2022-09-29T13:10:49;11.80;99.90
7384;DHT22;3733;47.994;8.820;2022-09-29T13:13:40;11.80;99.90
7384;DHT22;3733;47.994;8.820;2022-09-29T13:16:17;11.70;99.90
7384;DHT22;3733;47.994;8.820;2022-09-29T13:27:20;11.50;99.90
7384;DHT22;3733;47.994;8.820;2022-09-29T13:32:25;11.40;99.90
7384;DHT22;3733;47.994;8.820;2022-09-29T13:34:56;11.30;99.90
7384;DHT22;3733;47.994;8.820;2022-09-29T13:37:25;11.30;99.90
7384;DHT22;3733;47.994;8.820;2022-09-29T13:47:56;11.00;99.90
7384;DHT22;3733;47.994;8.820;2022-09-29T13:53:34;10.90;99.90
7384;DHT22;3733;47.994;8.820;2022-09-29T13:59:10;10.80;99.90
7384;DHT22;3733;47.994;8.820;2022-09-29T14:01:35;10.80;99.90
7384;DHT22;3733;47.994;8.820;2022-09-29T14:06:58;10.80;99.90
7384;DHT22;3733;47.994;8.820;2022-09-29T14:09:29;10.80;99.90
7384;DHT22;3733;47.994;8.820;2022-09-29T14:12:00;10.80;99.90
7384;DHT22;3733;47.994;8.820;2022-09-29T14:14:54;10.80;99.90
7384;DHT22;3733;47.994;8.820;2022-09-29T14:17:34;10.70;99.90
7384;DHT22;3733;47.994;8.820;2022-09-29T14:20:13;10.70;99.90
7384;DHT22;3733;47.994;8.820;2022-09-29T14:35:40;10.60;99.90
7384;DHT22;3733;47.994;8.820;2022-09-29T14:38:19;10.60;99.90
7384;DHT22;3733;47.994;8.820;2022-09-29T15:02:46;10.40;99.90
7384;DHT22;3733;47.994;8.820;2022-09-29T15:05:33;10.40;99.90
7384;DHT22;3733;47.994;8.820;2022-09-29T15:08:00;10.40;99.90
7384;DHT22;3733;47.994;8.820;2022-09-29T15:15:47;10.30;99.90
7384;DHT22;3733;47.994;8.820;2022-09-29T15:21:03;10.30;99.90
7384;DHT22;3733;47.994;8.820;2022-09-29T15:26:31;10.30;99.90
7384;DHT22;3733;47.994;8.820;2022-09-29T15:28:58;10.30;99.90
7384;DHT22;3733;47.994;8.820;2022-09-29T15:31:30;10.30;99.90
7384;DHT22;3733;47.994;8.820;2022-09-29T15:33:58;10.30;99.90
7384;DHT22;3733;47.994;8.820;2022-09-29T15:36:26;10.20;99.90
7384;DHT22;3733;47.994;8.820;2022-09-29T15:39:00;10.20;99.90
7384;DHT22;3733;47.994;8.820;2022-09-29T15:41:29;10.20;99.90
7384;DHT22;3733;47.994;8.820;2022-09-29T15:43:56;10.20;99.90
7384;DHT22;3733;47.994;8.820;2022-09-29T15:46:38;10.20;99.90
7384;DHT22;3733;47.994;8.820;2022-09-29T15:49:13;10.20;99.90
7384;DHT22;3733;47.994;8.820;2022-09-29T15:51:41;10.20;99.90
7384;DHT22;3733;47.994;8.820;2022-09-29T15:54:12;10.10;99.90
7384;DHT22;3733;47.994;8.820;2022-09-29T15:56:38;10.10;99.90
7384;DHT22;3733;47.994;8.820;2022-09-29T15:59:39;10.10;99.90
7384;DHT22;3733;47.994;8.820;2022-09-29T16:02:12;10.10;99.90
7384;DHT22;3733;47.994;8.820;2022-09-29T16:04:39;10.10;99.90
7384;DHT22;3733;47.994;8.820;2022-09-29T16:07:26;10.20;99.90
7384;DHT22;3733;47.994;8.820;2022-09-29T16:10:00;10.20;99.90
7384;DHT22;3733;47.994;8.820;2022-09-29T16:12:29;10.20;99.90
7384;DHT22;3733;47.994;8.820;2022-09-29T16:14:57;10.10;99.90
7384;DHT22;3733;47.994;8.820;2022-09-29T16:17:24;10.10;99.90
7384;DHT22;3733;47.994;8.820;2022-09-29T16:19:50;10.10;99.90
7384;DHT22;3733;47.994;8.820;2022-09-29T16:22:20;10.10;99.90
7384;DHT22;3733;47.994;8.820;2022-09-29T16:25:08;10.10;99.90
7384;DHT22;3733;47.994;8.820;2022-09-29T16:27:59;10.10;99.90
7384;DHT22;3733;47.994;8.820;2022-09-29T16:33:36;10.10;99.90
7384;DHT22;3733;47.994;8.820;2022-09-29T16:36:22;10.10;99.90
7384;DHT22;3733;47.994;8.820;2022-09-29T16:38:50;10.10;99.90
7384;DHT22;3733;47.994;8.820;2022-09-29T16:41:29;10.10;99.90
7384;DHT22;3733;47.994;8.820;2022-09-29T16:51:55;10.00;99.90
7384;DHT22;3733;47.994;8.820;2022-09-29T16:54:26;9.90;99.90
7384;DHT22;3733;47.994;8.820;2022-09-29T16:59:45;9.90;99.90
7384;DHT22;3733;47.994;8.820;2022-09-29T17:02:12;9.90;99.90
7384;DHT22;3733;47.994;8.820;2022-09-29T17:04:38;9.90;99.90
7384;DHT22;3733;47.994;8.820;2022-09-29T17:07:04;9.90;99.90
7384;DHT22;3733;47.994;8.820;2022-09-29T17:09:30;9.80;99.90
7384;DHT22;3733;47.994;8.820;2022-09-29T17:11:56;9.80;99.90
7384;DHT22;3733;47.994;8.820;2022-09-29T17:14:23;9.80;99.90
7384;DHT22;3733;47.994;8.820;2022-09-29T17:16:49;9.70;99.90
7384;DHT22;3733;47.994;8.820;2022-09-29T17:19:17;9.70;99.90
7384;DHT22;3733;47.994;8.820;2022-09-29T17:21:43;9.70;99.90
7384;DHT22;3733;47.994;8.820;2022-09-29T17:24:09;9.70;99.90
7384;DHT22;3733;47.994;8.820;2022-09-29T17:26:42;9.60;99.90
7384;DHT22;3733;47.994;8.820;2022-09-29T17:29:26;9.60;99.90
7384;DHT22;3733;47.994;8.820;2022-09-29T17:31:53;9.60;99.90
7384;DHT22;3733;47.994;8.820;2022-09-29T17:34:18;9.60;99.90
7384;DHT22;3733;47.994;8.820;2022-09-29T17:36:56;9.60;99.90
7384;DHT22;3733;47.994;8.820;2022-09-29T17:39:24;9.60;99.90
7384;DHT22;3733;47.994;8.820;2022-09-29T17:41:49;9.50;99.90
7384;DHT22;3733;47.994;8.820;2022-09-29T17:44:15;9.60;99.90
7384;DHT22;3733;47.994;8.820;2022-09-29T17:46:41;9.50;99.90
7384;DHT22;3733;47.994;8.820;2022-09-29T17:49:13;9.50;99.90
7384;DHT22;3733;47.994;8.820;2022-09-29T17:51:39;9.50;99.90
7384;DHT22;3733;47.994;8.820;2022-09-29T17:54:05;9.50;99.90
7384;DHT22;3733;47.994;8.820;2022-09-29T17:56:39;9.50;99.90
7384;DHT22;3733;47.994;8.820;2022-09-29T17:59:05;9.50;99.90
7384;DHT22;3733;47.994;8.820;2022-09-29T18:01:33;9.50;99.90
7384;DHT22;3733;47.994;8.820;2022-09-29T18:03:59;9.50;99.90
7384;DHT22;3733;47.994;8.820;2022-09-29T18:06:25;9.50;99.90
7384;DHT22;3733;47.994;8.820;2022-09-29T18:08:52;9.40;99.90
7384;DHT22;3733;47.994;8.820;2022-09-29T18:11:20;9.40;99.90
7384;DHT22;3733;47.994;8.820;2022-09-29T18:13:46;9.40;99.90
7384;DHT22;3733;47.994;8.820;2022-09-29T18:16:17;9.40;99.90
7384;DHT22;3733;47.994;8.820;2022-09-29T18:18:43;9.40;99.90
7384;DHT22;3733;47.994;8.820;2022-09-29T18:21:10;9.40;99.90
7384;DHT22;3733;47.994;8.820;2022-09-29T18:23:36;9.40;99.90
7384;DHT22;3733;47.994;8.820;2022-09-29T18:26:04;9.40;99.90
7384;DHT22;3733;47.994;8.820;2022-09-29T18:28:30;9.30;99.90
7384;DHT22;3733;47.994;8.820;2022-09-29T18:33:39;9.30;99.90
7384;DHT22;3733;47.994;8.820;2022-09-29T18:36:07;9.30;99.90
7384;DHT22;3733;47.994;8.820;2022-09-29T18:38:34;9.30;99.90
7384;DHT22;3733;47.994;8.820;2022-09-29T18:40:59;9.30;99.90
7384;DHT22;3733;47.994;8.820;2022-09-29T18:43:25;9.30;99.90
7384;DHT22;3733;47.994;8.820;2022-09-29T18:45:54;9.20;99.90
7384;DHT22;3733;47.994;8.820;2022-09-29T18:48:20;9.20;99.90
7384;DHT22;3733;47.994;8.820;2022-09-29T18:50:48;9.20;99.90
7384;DHT22;3733;47.994;8.820;2022-09-29T18:53:16;9.20;99.90
7384;DHT22;3733;47.994;8.820;2022-09-29T18:55:44;9.20;99.90
7384;DHT22;3733;47.994;8.820;2022-09-29T18:58:15;9.10;99.90
7384;DHT22;3733;47.994;8.820;2022-09-29T19:00:47;9.10;99.90
7384;DHT22;3733;47.994;8.820;2022-09-29T19:03:15;9.10;99.90
7384;DHT22;3733;47.994;8.820;2022-09-29T19:05:42;9.10;99.90
7384;DHT22;3733;47.994;8.820;2022-09-29T19:08:10;9.10;99.90
7384;DHT22;3733;47.994;8.820;2022-09-29T19:10:37;9.10;99.90
7384;DHT22;3733;47.994;8.820;2022-09-29T19:13:07;9.10;99.90
7384;DHT22;3733;47.994;8.820;2022-09-29T19:15:36;9.10;99.90
7384;DHT22;3733;47.994;8.820;2022-09-29T19:18:05;9.00;99.90
7384;DHT22;3733;47.994;8.820;2022-09-29T19:20:33;9.00;99.90
7384;DHT22;3733;47.994;8.820;2022-09-29T19:22:59;9.10;99.90
7384;DHT22;3733;47.994;8.820;2022-09-29T19:25:29;9.10;99.90
7384;DHT22;3733;47.994;8.820;2022-09-29T19:27:56;9.10;99.90
7384;DHT22;3733;47.994;8.820;2022-09-29T19:30:24;9.10;99.90
7384;DHT22;3733;47.994;8.820;2022-09-29T19:32:50;9.10;99.90
7384;DHT22;3733;47.994;8.820;2022-09-29T19:35:19;9.10;99.90
7384;DHT22;3733;47.994;8.820;2022-09-29T19:37:46;9.00;99.90
7384;DHT22;3733;47.994;8.820;2022-09-29T19:40:16;9.00;99.90
7384;DHT22;3733;47.994;8.820;2022-09-29T19:42:43;9.00;99.90
7384;DHT22;3733;47.994;8.820;2022-09-29T19:45:09;9.00;99.90
7384;DHT22;3733;47.994;8.820;2022-09-29T19:47:35;9.00;99.90
7384;DHT22;3733;47.994;8.820;2022-09-29T19:50:03;9.00;99.90
7384;DHT22;3733;47.994;8.820;2022-09-29T19:52:48;9.00;99.90
7384;DHT22;3733;47.994;8.820;2022-09-29T19:55:13;8.90;99.90
7384;DHT22;3733;47.994;8.820;2022-09-29T19:57:40;8.90;99.90
7384;DHT22;3733;47.994;8.820;2022-09-29T20:00:11;8.90;99.90
7384;DHT22;3733;47.994;8.820;2022-09-29T20:02:39;8.90;99.90
7384;DHT22;3733;47.994;8.820;2022-09-29T20:05:07;8.90;99.90
7384;DHT22;3733;47.994;8.820;2022-09-29T20:07:40;8.90;99.90
7384;DHT22;3733;47.994;8.820;2022-09-29T20:10:09;8.90;99.90
7384;DHT22;3733;47.994;8.820;2022-09-29T20:12:35;8.90;99.90
7384;DHT22;3733;47.994;8.820;2022-09-29T20:15:03;8.90;99.90
7384;DHT22;3733;47.994;8.820;2022-09-29T20:17:29;8.80;99.90
7384;DHT22;3733;47.994;8.820;2022-09-29T20:19:55;8.90;99.90
7384;DHT22;3733;47.994;8.820;2022-09-29T20:22:21;8.90;99.90
7384;DHT22;3733;47.994;8.820;2022-09-29T20:24:51;8.90;99.90
7384;DHT22;3733;47.994;8.820;2022-09-29T20:27:20;8.90;99.90
7384;DHT22;3733;47.994;8.820;2022-09-29T20:29:46;8.90;99.90
7384;DHT22;3733;47.994;8.820;2022-09-29T20:32:15;8.90;99.90
7384;DHT22;3733;47.994;8.820;2022-09-29T20:34:41;8.90;99.90
7384;DHT22;3733;47.994;8.820;2022-09-29T20:37:07;8.90;99.90